sensor_id;sensor_type;location;lat;lon;timestamp;temperature;humidity
19567;DHT22;9930;49.240;8.548;2024-02-23T00:01:51;12.10;72.20
19567;DHT22;9930;49.240;8.548;2024-02-23T00:04:17;12.00;72.20
19567;DHT22;9930;49.240;8.548;2024-02-23T00:06:46;12.00;72.30
19567;DHT22;9930;49.240;8.548;2024-02-23T00:09:13;12.00;72.30
19567;DHT22;9930;49.240;8.548;2024-02-23T00:11:41;11.90;72.40
19567;DHT22;9930;49.240;8.548;2024-02-23T00:14:12;11.90;72.40
19567;DHT22;9930;49.240;8.548;2024-02-23T00:16:39;11.90;72.50
19567;DHT22;9930;49.240;8.548;2024-02-23T00:19:08;11.90;72.60
19567;DHT22;9930;49.240;8.548;2024-02-23T00:21:35;11.80;72.50
19567;DHT22;9930;49.240;8.548;2024-02-23T00:24:01;11.80;72.60
19567;DHT22;9930;49.240;8.548;2024-02-23T00:26:27;11.80;72.60
19567;DHT22;9930;49.240;8.548;2024-02-23T00:28:54;11.70;72.70
19567;DHT22;9930;49.240;8.548;2024-02-23T00:31:23;11.70;72.70
19567;DHT22;9930;49.240;8.548;2024-02-23T00:33:50;11.70;72.70
19567;DHT22;9930;49.240;8.548;2024-02-23T00:36:16;11.60;72.70
19567;DHT22;9930;49.240;8.548;2024-02-23T00:38:42;11.60;72.70
19567;DHT22;9930;49.240;8.548;2024-02-23T00:41:08;11.60;72.60
19567;DHT22;9930;49.240;8.548;2024-02-23T00:43:39;11.60;72.60
19567;DHT22;9930;49.240;8.548;2024-02-23T00:46:07;11.50;72.40
19567;DHT22;9930;49.240;8.548;2024-02-23T00:48:34;11.50;72.50
19567;DHT22;9930;49.240;8.548;2024-02-23T00:51:01;11.50;72.50
19567;DHT22;9930;49.240;8.548;2024-02-23T00:53:28;11.40;72.30
19567;DHT22;9930;49.240;8.548;2024-02-23T00:55:56;11.40;72.40
19567;DHT22;9930;49.240;8.548;2024-02-23T00:58:21;11.40;72.30
19567;DHT22;9930;49.240;8.548;2024-02-23T01:00:48;11.40;72.30
19567;DHT22;9930;49.240;8.548;2024-02-23T01:03:15;11.30;72.30
19567;DHT22;9930;49.240;8.548;2024-02-23T01:05:41;11.40;72.30
19567;DHT22;9930;49.240;8.548;2024-02-23T01:08:08;11.30;72.30
19567;DHT22;9930;49.240;8.548;2024-02-23T01:10:34;11.30;72.40
19567;DHT22;9930;49.240;8.548;2024-02-23T01:13:00;11.20;72.30
19567;DHT22;9930;49.240;8.548;2024-02-23T01:15:26;11.20;72.40
19567;DHT22;9930;49.240;8.548;2024-02-23T01:17:51;11.10;72.20
19567;DHT22;9930;49.240;8.548;2024-02-23T01:20:18;11.10;72.30
19567;DHT22;9930;49.240;8.548;2024-02-23T01:22:45;11.10;72.40
19567;DHT22;9930;49.240;8.548;2024-02-23T01:25:11;11.10;72.40
19567;DHT22;9930;49.240;8.548;2024-02-23T01:27:37;11.10;72.40
19567;DHT22;9930;49.240;8.548;2024-02-23T01:30:03;11.00;72.30
19567;DHT22;9930;49.240;8.548;2024-02-23T01:32:30;10.90;72.30
19567;DHT22;9930;49.240;8.548;2024-02-23T01:34:55;10.90;72.40
19567;DHT22;9930;49.240;8.548;2024-02-23T01:37:21;10.90;72.40
19567;DHT22;9930;49.240;8.548;2024-02-23T01:39:47;10.90;72.50
19567;DHT22;9930;49.240;8.548;2024-02-23T01:42:15;10.80;72.50
19567;DHT22;9930;49.240;8.548;2024-02-23T01:44:41;10.80;72.50
19567;DHT22;9930;49.240;8.548;2024-02-23T01:47:07;10.80;72.50
19567;DHT22;9930;49.240;8.548;2024-02-23T01:49:33;10.80;72.60
19567;DHT22;9930;49.240;8.548;2024-02-23T01:52:01;10.80;72.60
19567;DHT22;9930;49.240;8.548;2024-02-23T01:54:29;10.70;72.50
19567;DHT22;9930;49.240;8.548;2024-02-23T01:56:56;10.70;72.50
19567;DHT22;9930;49.240;8.548;2024-02-23T01:59:26;10.70;72.40
19567;DHT22;9930;49.240;8.548;2024-02-23T02:01:53;10.70;72.40
19567;DHT22;9930;49.240;8.548;2024-02-23T02:04:20;10.70;72.50
19567;DHT22;9930;49.240;8.548;2024-02-23T02:06:49;10.70;72.50
19567;DHT22;9930;49.240;8.548;2024-02-23T02:09:16;10.60;72.40
19567;DHT22;9930;49.240;8.548;2024-02-23T02:11:50;10.60;72.40
19567;DHT22;9930;49.240;8.548;2024-02-23T02:14:17;10.60;72.30
19567;DHT22;9930;49.240;8.548;2024-02-23T02:16:46;10.60;72.40
19567;DHT22;9930;49.240;8.548;2024-02-23T02:19:12;10.60;72.50
19567;DHT22;9930;49.240;8.548;2024-02-23T02:21:38;10.60;72.60
19567;DHT22;9930;49.240;8.548;2024-02-23T02:24:04;10.60;72.70
19567;DHT22;9930;49.240;8.548;2024-02-23T02:26:31;10.60;72.60
19567;DHT22;9930;49.240;8.548;2024-02-23T02:28:57;10.60;72.70
19567;DHT22;9930;49.240;8.548;2024-02-23T02:31:23;10.70;72.80
19567;DHT22;9930;49.240;8.548;2024-02-23T02:33:50;10.70;72.80
19567;DHT22;9930;49.240;8.548;2024-02-23T02:36:16;10.70;72.70
19567;DHT22;9930;49.240;8.548;2024-02-23T02:38:41;10.70;72.80
19567;DHT22;9930;49.240;8.548;2024-02-23T02:41:08;10.70;72.80
19567;DHT22;9930;49.240;8.548;2024-02-23T02:43:34;10.80;72.70
19567;DHT22;9930;49.240;8.548;2024-02-23T02:45:59;10.80;72.70
19567;DHT22;9930;49.240;8.548;2024-02-23T02:48:25;10.80;72.80
19567;DHT22;9930;49.240;8.548;2024-02-23T02:50:51;10.80;72.70
19567;DHT22;9930;49.240;8.548;2024-02-23T02:53:19;10.80;72.70
19567;DHT22;9930;49.240;8.548;2024-02-23T02:55:46;10.80;72.50
19567;DHT22;9930;49.240;8.548;2024-02-23T02:58:12;10.80;72.50
19567;DHT22;9930;49.240;8.548;2024-02-23T03:00:38;10.90;72.60
19567;DHT22;9930;49.240;8.548;2024-02-23T03:03:04;10.80;72.50
19567;DHT22;9930;49.240;8.548;2024-02-23T03:05:30;10.80;72.40
19567;DHT22;9930;49.240;8.548;2024-02-23T03:07:56;10.80;72.40
19567;DHT22;9930;49.240;8.548;2024-02-23T03:10:22;10.80;72.40
19567;DHT22;9930;49.240;8.548;2024-02-23T03:12:48;10.80;72.30
19567;DHT22;9930;49.240;8.548;2024-02-23T03:15:16;10.80;72.00
19567;DHT22;9930;49.240;8.548;2024-02-23T03:17:41;10.90;72.20
19567;DHT22;9930;49.240;8.548;2024-02-23T03:20:08;10.80;71.80
19567;DHT22;9930;49.240;8.548;2024-02-23T03:22:37;10.80;71.90
19567;DHT22;9930;49.240;8.548;2024-02-23T03:25:03;10.80;71.80
19567;DHT22;9930;49.240;8.548;2024-02-23T03:27:34;10.80;71.80
19567;DHT22;9930;49.240;8.548;2024-02-23T03:30:04;10.80;71.80
19567;DHT22;9930;49.240;8.548;2024-02-23T03:32:33;10.80;71.70
19567;DHT22;9930;49.240;8.548;2024-02-23T03:35:06;10.80;71.60
19567;DHT22;9930;49.240;8.548;2024-02-23T03:37:32;10.80;71.60
19567;DHT22;9930;49.240;8.548;2024-02-23T03:39:58;10.80;71.60
19567;DHT22;9930;49.240;8.548;2024-02-23T03:42:25;10.80;71.50
19567;DHT22;9930;49.240;8.548;2024-02-23T03:44:51;10.80;71.50
19567;DHT22;9930;49.240;8.548;2024-02-23T03:47:17;10.80;71.50
19567;DHT22;9930;49.240;8.548;2024-02-23T03:49:50;10.80;71.50
19567;DHT22;9930;49.240;8.548;2024-02-23T03:52:16;10.70;71.30
19567;DHT22;9930;49.240;8.548;2024-02-23T03:54:41;10.70;71.30
19567;DHT22;9930;49.240;8.548;2024-02-23T03:57:07;10.70;71.40
19567;DHT22;9930;49.240;8.548;2024-02-23T03:59:36;10.80;71.40
19567;DHT22;9930;49.240;8.548;2024-02-23T04:02:03;10.70;71.20
19567;DHT22;9930;49.240;8.548;2024-02-23T04:04:29;10.70;71.10
19567;DHT22;9930;49.240;8.548;2024-02-23T04:06:55;10.70;71.20
19567;DHT22;9930;49.240;8.548;2024-02-23T04:09:21;10.70;71.10
19567;DHT22;9930;49.240;8.548;2024-02-23T04:11:50;10.70;71.10
19567;DHT22;9930;49.240;8.548;2024-02-23T04:14:16;10.70;71.00
19567;DHT22;9930;49.240;8.548;2024-02-23T04:16:42;10.70;71.10
19567;DHT22;9930;49.240;8.548;2024-02-23T04:19:07;10.70;71.20
19567;DHT22;9930;49.240;8.548;2024-02-23T04:21:33;10.60;70.90
19567;DHT22;9930;49.240;8.548;2024-02-23T04:23:59;10.60;71.00
19567;DHT22;9930;49.240;8.548;2024-02-23T04:26:25;10.60;71.10
19567;DHT22;9930;49.240;8.548;2024-02-23T04:28:51;10.60;71.00
19567;DHT22;9930;49.240;8.548;2024-02-23T04:31:16;10.60;71.00
19567;DHT22;9930;49.240;8.548;2024-02-23T04:33:42;10.60;71.00
19567;DHT22;9930;49.240;8.548;2024-02-23T04:36:08;10.60;71.00
19567;DHT22;9930;49.240;8.548;2024-02-23T04:38:34;10.60;71.00
19567;DHT22;9930;49.240;8.548;2024-02-23T04:41:03;10.50;70.90
19567;DHT22;9930;49.240;8.548;2024-02-23T04:43:30;10.50;71.10
19567;DHT22;9930;49.240;8.548;2024-02-23T04:45:56;10.50;71.10
19567;DHT22;9930;49.240;8.548;2024-02-23T04:48:22;10.50;70.90
19567;DHT22;9930;49.240;8.548;2024-02-23T04:50:48;10.50;71.00
19567;DHT22;9930;49.240;8.548;2024-02-23T04:53:18;10.50;70.90
19567;DHT22;9930;49.240;8.548;2024-02-23T04:55:46;10.40;70.80
19567;DHT22;9930;49.240;8.548;2024-02-23T04:58:11;10.40;70.70
19567;DHT22;9930;49.240;8.548;2024-02-23T05:00:37;10.40;70.70
19567;DHT22;9930;49.240;8.548;2024-02-23T05:03:03;10.40;70.70
19567;DHT22;9930;49.240;8.548;2024-02-23T05:05:32;10.30;70.60
19567;DHT22;9930;49.240;8.548;2024-02-23T05:07:58;10.30;70.60
19567;DHT22;9930;49.240;8.548;2024-02-23T05:10:24;10.30;70.70
19567;DHT22;9930;49.240;8.548;2024-02-23T05:12:51;10.20;70.60
19567;DHT22;9930;49.240;8.548;2024-02-23T05:15:17;10.20;70.70
19567;DHT22;9930;49.240;8.548;2024-02-23T05:17:42;10.20;70.60
19567;DHT22;9930;49.240;8.548;2024-02-23T05:20:09;10.20;70.60
19567;DHT22;9930;49.240;8.548;2024-02-23T05:22:39;10.10;70.60
19567;DHT22;9930;49.240;8.548;2024-02-23T05:25:05;10.20;70.80
19567;DHT22;9930;49.240;8.548;2024-02-23T05:27:32;10.20;70.70
19567;DHT22;9930;49.240;8.548;2024-02-23T05:29:58;10.10;70.80
19567;DHT22;9930;49.240;8.548;2024-02-23T05:32:24;10.10;70.80
19567;DHT22;9930;49.240;8.548;2024-02-23T05:34:51;10.20;70.70
19567;DHT22;9930;49.240;8.548;2024-02-23T05:37:20;10.10;70.80
19567;DHT22;9930;49.240;8.548;2024-02-23T05:39:51;10.10;70.60
19567;DHT22;9930;49.240;8.548;2024-02-23T05:42:17;10.10;70.60
19567;DHT22;9930;49.240;8.548;2024-02-23T05:44:46;10.10;70.50
19567;DHT22;9930;49.240;8.548;2024-02-23T05:47:14;10.10;70.30
19567;DHT22;9930;49.240;8.548;2024-02-23T05:49:40;10.10;70.30
19567;DHT22;9930;49.240;8.548;2024-02-23T05:52:06;10.10;70.10
19567;DHT22;9930;49.240;8.548;2024-02-23T05:54:32;10.10;70.10
19567;DHT22;9930;49.240;8.548;2024-02-23T05:56:57;10.10;70.10
19567;DHT22;9930;49.240;8.548;2024-02-23T05:59:23;10.10;70.10
19567;DHT22;9930;49.240;8.548;2024-02-23T06:01:51;10.10;70.00
19567;DHT22;9930;49.240;8.548;2024-02-23T06:04:22;10.00;69.90
19567;DHT22;9930;49.240;8.548;2024-02-23T06:06:53;10.00;69.70
19567;DHT22;9930;49.240;8.548;2024-02-23T06:09:20;9.90;69.60
19567;DHT22;9930;49.240;8.548;2024-02-23T06:11:47;9.90;69.60
19567;DHT22;9930;49.240;8.548;2024-02-23T06:14:13;9.90;69.60
19567;DHT22;9930;49.240;8.548;2024-02-23T06:16:39;9.90;69.60
19567;DHT22;9930;49.240;8.548;2024-02-23T06:19:05;9.80;69.60
19567;DHT22;9930;49.240;8.548;2024-02-23T06:21:31;9.80;69.50
19567;DHT22;9930;49.240;8.548;2024-02-23T06:23:58;9.70;69.50
19567;DHT22;9930;49.240;8.548;2024-02-23T06:26:24;9.70;69.60
19567;DHT22;9930;49.240;8.548;2024-02-23T06:28:50;9.60;69.40
19567;DHT22;9930;49.240;8.548;2024-02-23T06:31:16;9.60;69.50
19567;DHT22;9930;49.240;8.548;2024-02-23T06:33:41;9.60;69.60
19567;DHT22;9930;49.240;8.548;2024-02-23T06:36:09;9.50;69.60
19567;DHT22;9930;49.240;8.548;2024-02-23T06:38:35;9.50;69.60
19567;DHT22;9930;49.240;8.548;2024-02-23T06:41:01;9.50;69.70
19567;DHT22;9930;49.240;8.548;2024-02-23T06:43:26;9.40;69.50
19567;DHT22;9930;49.240;8.548;2024-02-23T06:45:52;9.40;69.60
19567;DHT22;9930;49.240;8.548;2024-02-23T06:48:19;9.40;69.60
19567;DHT22;9930;49.240;8.548;2024-02-23T06:50:46;9.30;69.50
19567;DHT22;9930;49.240;8.548;2024-02-23T06:53:12;9.40;69.60
19567;DHT22;9930;49.240;8.548;2024-02-23T06:55:38;9.30;69.50
19567;DHT22;9930;49.240;8.548;2024-02-23T06:58:03;9.30;69.40
19567;DHT22;9930;49.240;8.548;2024-02-23T07:00:30;9.30;69.50
19567;DHT22;9930;49.240;8.548;2024-02-23T07:02:56;9.30;69.50
19567;DHT22;9930;49.240;8.548;2024-02-23T07:05:24;9.20;69.40
19567;DHT22;9930;49.240;8.548;2024-02-23T07:07:51;9.20;69.50
19567;DHT22;9930;49.240;8.548;2024-02-23T07:10:17;9.20;69.40
19567;DHT22;9930;49.240;8.548;2024-02-23T07:12:44;9.20;69.50
19567;DHT22;9930;49.240;8.548;2024-02-23T07:15:10;9.20;69.50
19567;DHT22;9930;49.240;8.548;2024-02-23T07:17:35;9.20;69.60
19567;DHT22;9930;49.240;8.548;2024-02-23T07:20:01;9.10;69.40
19567;DHT22;9930;49.240;8.548;2024-02-23T07:22:32;9.10;69.80
19567;DHT22;9930;49.240;8.548;2024-02-23T07:24:57;9.10;69.60
19567;DHT22;9930;49.240;8.548;2024-02-23T07:27:23;9.10;69.70
19567;DHT22;9930;49.240;8.548;2024-02-23T07:29:50;9.10;69.80
19567;DHT22;9930;49.240;8.548;2024-02-23T07:32:16;9.10;69.80
19567;DHT22;9930;49.240;8.548;2024-02-23T07:34:41;9.20;70.00
19567;DHT22;9930;49.240;8.548;2024-02-23T07:37:08;9.10;69.90
19567;DHT22;9930;49.240;8.548;2024-02-23T07:39:34;9.20;70.00
19567;DHT22;9930;49.240;8.548;2024-02-23T07:42:00;9.20;70.00
19567;DHT22;9930;49.240;8.548;2024-02-23T07:44:27;9.20;70.00
19567;DHT22;9930;49.240;8.548;2024-02-23T07:46:52;9.20;69.90
19567;DHT22;9930;49.240;8.548;2024-02-23T07:49:22;9.20;69.90
19567;DHT22;9930;49.240;8.548;2024-02-23T07:51:49;9.20;69.80
19567;DHT22;9930;49.240;8.548;2024-02-23T07:54:16;9.20;69.90
19567;DHT22;9930;49.240;8.548;2024-02-23T07:56:42;9.30;70.10
19567;DHT22;9930;49.240;8.548;2024-02-23T07:59:07;9.30;70.30
19567;DHT22;9930;49.240;8.548;2024-02-23T08:01:33;9.30;70.40
19567;DHT22;9930;49.240;8.548;2024-02-23T08:03:59;9.40;70.60
19567;DHT22;9930;49.240;8.548;2024-02-23T08:06:25;9.40;70.80
19567;DHT22;9930;49.240;8.548;2024-02-23T08:08:51;9.50;70.90
19567;DHT22;9930;49.240;8.548;2024-02-23T08:11:19;9.60;71.00
19567;DHT22;9930;49.240;8.548;2024-02-23T08:13:45;9.70;71.30
19567;DHT22;9930;49.240;8.548;2024-02-23T08:16:10;9.80;71.40
19567;DHT22;9930;49.240;8.548;2024-02-23T08:18:36;9.90;71.30
19567;DHT22;9930;49.240;8.548;2024-02-23T08:21:02;10.10;71.40
19567;DHT22;9930;49.240;8.548;2024-02-23T08:23:29;10.20;71.40
19567;DHT22;9930;49.240;8.548;2024-02-23T08:25:55;10.40;71.40
19567;DHT22;9930;49.240;8.548;2024-02-23T08:28:23;10.50;71.10
19567;DHT22;9930;49.240;8.548;2024-02-23T08:30:51;10.60;70.50
19567;DHT22;9930;49.240;8.548;2024-02-23T08:33:20;10.70;70.70
19567;DHT22;9930;49.240;8.548;2024-02-23T08:35:46;10.80;70.40
19567;DHT22;9930;49.240;8.548;2024-02-23T08:38:14;10.90;70.20
19567;DHT22;9930;49.240;8.548;2024-02-23T08:40:40;11.00;70.20
19567;DHT22;9930;49.240;8.548;2024-02-23T08:43:07;11.10;70.00
19567;DHT22;9930;49.240;8.548;2024-02-23T08:45:33;11.20;70.00
19567;DHT22;9930;49.240;8.548;2024-02-23T08:47:58;11.20;69.90
19567;DHT22;9930;49.240;8.548;2024-02-23T08:50:25;11.30;69.80
19567;DHT22;9930;49.240;8.548;2024-02-23T08:52:50;11.40;69.60
19567;DHT22;9930;49.240;8.548;2024-02-23T08:55:19;11.40;69.10
19567;DHT22;9930;49.240;8.548;2024-02-23T08:57:46;11.50;68.40
19567;DHT22;9930;49.240;8.548;2024-02-23T09:00:13;11.60;68.50
19567;DHT22;9930;49.240;8.548;2024-02-23T09:02:40;11.60;68.30
19567;DHT22;9930;49.240;8.548;2024-02-23T09:05:08;11.70;68.20
19567;DHT22;9930;49.240;8.548;2024-02-23T09:07:34;11.70;68.20
19567;DHT22;9930;49.240;8.548;2024-02-23T09:10:01;11.80;68.40
19567;DHT22;9930;49.240;8.548;2024-02-23T09:12:27;11.80;68.50
19567;DHT22;9930;49.240;8.548;2024-02-23T09:14:53;11.90;68.60
19567;DHT22;9930;49.240;8.548;2024-02-23T09:17:20;12.00;68.70
19567;DHT22;9930;49.240;8.548;2024-02-23T09:19:46;12.10;68.20
19567;DHT22;9930;49.240;8.548;2024-02-23T09:22:12;12.20;67.90
19567;DHT22;9930;49.240;8.548;2024-02-23T09:24:41;12.20;67.50
19567;DHT22;9930;49.240;8.548;2024-02-23T09:27:08;12.30;67.10
19567;DHT22;9930;49.240;8.548;2024-02-23T09:29:34;12.40;67.30
19567;DHT22;9930;49.240;8.548;2024-02-23T09:32:00;12.40;67.10
19567;DHT22;9930;49.240;8.548;2024-02-23T09:34:26;12.50;67.00
19567;DHT22;9930;49.240;8.548;2024-02-23T09:36:52;12.50;67.00
19567;DHT22;9930;49.240;8.548;2024-02-23T09:39:18;12.60;66.60
19567;DHT22;9930;49.240;8.548;2024-02-23T09:41:45;12.60;66.40
19567;DHT22;9930;49.240;8.548;2024-02-23T09:44:15;12.70;66.40
19567;DHT22;9930;49.240;8.548;2024-02-23T09:46:48;12.70;66.10
19567;DHT22;9930;49.240;8.548;2024-02-23T09:49:15;12.80;66.00
19567;DHT22;9930;49.240;8.548;2024-02-23T09:51:42;12.80;65.90
19567;DHT22;9930;49.240;8.548;2024-02-23T09:54:09;12.90;65.90
19567;DHT22;9930;49.240;8.548;2024-02-23T09:56:34;13.00;65.90
19567;DHT22;9930;49.240;8.548;2024-02-23T09:59:03;13.00;65.90
19567;DHT22;9930;49.240;8.548;2024-02-23T10:01:33;13.10;65.40
19567;DHT22;9930;49.240;8.548;2024-02-23T10:04:00;13.10;65.30
19567;DHT22;9930;49.240;8.548;2024-02-23T10:06:27;13.10;65.00
19567;DHT22;9930;49.240;8.548;2024-02-23T10:08:53;13.20;64.90
19567;DHT22;9930;49.240;8.548;2024-02-23T10:11:23;13.20;64.70
19567;DHT22;9930;49.240;8.548;2024-02-23T10:13:51;13.20;64.80
19567;DHT22;9930;49.240;8.548;2024-02-23T10:16:19;13.30;65.10
19567;DHT22;9930;49.240;8.548;2024-02-23T10:18:51;13.30;65.10
19567;DHT22;9930;49.240;8.548;2024-02-23T10:21:17;13.40;64.50
19567;DHT22;9930;49.240;8.548;2024-02-23T10:23:47;13.40;64.50
19567;DHT22;9930;49.240;8.548;2024-02-23T10:26:13;13.50;64.40
19567;DHT22;9930;49.240;8.548;2024-02-23T10:28:45;13.50;64.40
19567;DHT22;9930;49.240;8.548;2024-02-23T10:31:12;13.50;64.20
19567;DHT22;9930;49.240;8.548;2024-02-23T10:33:38;13.50;64.20
19567;DHT22;9930;49.240;8.548;2024-02-23T10:36:05;13.60;64.00
19567;DHT22;9930;49.240;8.548;2024-02-23T10:38:35;13.60;63.80
19567;DHT22;9930;49.240;8.548;2024-02-23T10:41:05;13.60;63.60
19567;DHT22;9930;49.240;8.548;2024-02-23T10:43:43;13.70;63.80
19567;DHT22;9930;49.240;8.548;2024-02-23T10:46:12;13.70;63.70
19567;DHT22;9930;49.240;8.548;2024-02-23T10:48:44;13.70;63.80
19567;DHT22;9930;49.240;8.548;2024-02-23T10:51:12;13.70;63.60
19567;DHT22;9930;49.240;8.548;2024-02-23T10:53:42;13.80;63.70
19567;DHT22;9930;49.240;8.548;2024-02-23T10:56:10;13.80;63.30
19567;DHT22;9930;49.240;8.548;2024-02-23T10:58:36;13.90;63.10
19567;DHT22;9930;49.240;8.548;2024-02-23T11:01:03;13.90;62.80
19567;DHT22;9930;49.240;8.548;2024-02-23T11:03:36;13.90;62.90
19567;DHT22;9930;49.240;8.548;2024-02-23T11:06:06;13.90;62.90
19567;DHT22;9930;49.240;8.548;2024-02-23T11:08:33;13.90;63.10
19567;DHT22;9930;49.240;8.548;2024-02-23T11:11:11;14.00;62.90
19567;DHT22;9930;49.240;8.548;2024-02-23T11:13:38;13.90;61.90
19567;DHT22;9930;49.240;8.548;2024-02-23T11:16:05;13.90;62.10
19567;DHT22;9930;49.240;8.548;2024-02-23T11:18:39;13.90;62.00
19567;DHT22;9930;49.240;8.548;2024-02-23T11:21:05;13.80;61.70
19567;DHT22;9930;49.240;8.548;2024-02-23T11:23:51;13.80;62.10
19567;DHT22;9930;49.240;8.548;2024-02-23T11:26:23;13.80;61.70
19567;DHT22;9930;49.240;8.548;2024-02-23T11:28:51;13.80;62.90
19567;DHT22;9930;49.240;8.548;2024-02-23T11:31:22;13.80;61.90
19567;DHT22;9930;49.240;8.548;2024-02-23T11:33:56;13.80;62.00
19567;DHT22;9930;49.240;8.548;2024-02-23T11:36:32;13.80;61.90
19567;DHT22;9930;49.240;8.548;2024-02-23T11:39:00;13.80;61.60
19567;DHT22;9930;49.240;8.548;2024-02-23T11:41:28;13.80;62.10
19567;DHT22;9930;49.240;8.548;2024-02-23T11:43:55;13.80;62.10
19567;DHT22;9930;49.240;8.548;2024-02-23T11:46:22;13.80;61.90
19567;DHT22;9930;49.240;8.548;2024-02-23T11:48:50;13.80;61.90
19567;DHT22;9930;49.240;8.548;2024-02-23T11:51:24;13.90;62.00
19567;DHT22;9930;49.240;8.548;2024-02-23T11:53:52;13.80;61.80
19567;DHT22;9930;49.240;8.548;2024-02-23T11:56:20;13.90;61.90
19567;DHT22;9930;49.240;8.548;2024-02-23T11:58:47;13.80;61.60
19567;DHT22;9930;49.240;8.548;2024-02-23T12:01:13;13.90;61.90
19567;DHT22;9930;49.240;8.548;2024-02-23T12:03:39;13.80;61.60
19567;DHT22;9930;49.240;8.548;2024-02-23T12:06:05;13.80;61.50
19567;DHT22;9930;49.240;8.548;2024-02-23T12:08:33;13.80;61.50
19567;DHT22;9930;49.240;8.548;2024-02-23T12:11:05;13.80;61.60
19567;DHT22;9930;49.240;8.548;2024-02-23T12:13:37;13.70;61.40
19567;DHT22;9930;49.240;8.548;2024-02-23T12:16:04;13.70;61.50
19567;DHT22;9930;49.240;8.548;2024-02-23T12:18:36;13.70;61.50
19567;DHT22;9930;49.240;8.548;2024-02-23T12:21:05;13.60;61.20
19567;DHT22;9930;49.240;8.548;2024-02-23T12:23:41;13.60;61.50
19567;DHT22;9930;49.240;8.548;2024-02-23T12:26:09;13.60;61.20
19567;DHT22;9930;49.240;8.548;2024-02-23T12:28:38;13.70;61.70
19567;DHT22;9930;49.240;8.548;2024-02-23T12:31:05;13.60;61.40
19567;DHT22;9930;49.240;8.548;2024-02-23T12:33:32;13.70;61.40
19567;DHT22;9930;49.240;8.548;2024-02-23T12:36:04;13.70;61.50
19567;DHT22;9930;49.240;8.548;2024-02-23T12:38:30;13.70;61.60
19567;DHT22;9930;49.240;8.548;2024-02-23T12:40:56;13.70;61.80
19567;DHT22;9930;49.240;8.548;2024-02-23T12:43:23;13.80;61.90
19567;DHT22;9930;49.240;8.548;2024-02-23T12:45:57;13.80;61.60
19567;DHT22;9930;49.240;8.548;2024-02-23T12:48:26;13.80;61.10
19567;DHT22;9930;49.240;8.548;2024-02-23T12:50:52;13.90;61.30
19567;DHT22;9930;49.240;8.548;2024-02-23T12:53:34;13.90;61.30
19567;DHT22;9930;49.240;8.548;2024-02-23T12:58:38;14.00;61.40
19567;DHT22;9930;49.240;8.548;2024-02-23T13:01:05;14.00;61.20
19567;DHT22;9930;49.240;8.548;2024-02-23T13:03:33;14.00;61.40
19567;DHT22;9930;49.240;8.548;2024-02-23T13:06:00;14.10;61.20
19567;DHT22;9930;49.240;8.548;2024-02-23T13:08:26;14.10;61.20
19567;DHT22;9930;49.240;8.548;2024-02-23T13:10:53;14.20;61.20
19567;DHT22;9930;49.240;8.548;2024-02-23T13:13:21;14.20;60.90
19567;DHT22;9930;49.240;8.548;2024-02-23T13:15:49;14.20;60.80
19567;DHT22;9930;49.240;8.548;2024-02-23T13:18:18;14.20;60.80
19567;DHT22;9930;49.240;8.548;2024-02-23T13:20:50;14.30;60.80
19567;DHT22;9930;49.240;8.548;2024-02-23T13:23:17;14.20;60.50
19567;DHT22;9930;49.240;8.548;2024-02-23T13:25:44;14.20;60.30
19567;DHT22;9930;49.240;8.548;2024-02-23T13:28:10;14.20;60.30
19567;DHT22;9930;49.240;8.548;2024-02-23T13:30:36;14.20;60.30
19567;DHT22;9930;49.240;8.548;2024-02-23T13:33:03;14.20;60.40
19567;DHT22;9930;49.240;8.548;2024-02-23T13:35:28;14.20;60.60
19567;DHT22;9930;49.240;8.548;2024-02-23T13:37:55;14.20;60.50
19567;DHT22;9930;49.240;8.548;2024-02-23T13:40:21;14.30;60.50
19567;DHT22;9930;49.240;8.548;2024-02-23T13:42:47;14.30;60.60
19567;DHT22;9930;49.240;8.548;2024-02-23T13:45:16;14.40;60.60
19567;DHT22;9930;49.240;8.548;2024-02-23T13:47:43;14.40;60.70
19567;DHT22;9930;49.240;8.548;2024-02-23T13:50:21;14.50;60.70
19567;DHT22;9930;49.240;8.548;2024-02-23T13:52:48;14.50;60.50
19567;DHT22;9930;49.240;8.548;2024-02-23T13:55:15;14.60;60.10
19567;DHT22;9930;49.240;8.548;2024-02-23T13:57:41;14.50;59.80
19567;DHT22;9930;49.240;8.548;2024-02-23T14:00:07;14.50;59.60
19567;DHT22;9930;49.240;8.548;2024-02-23T14:02:38;14.50;59.50
19567;DHT22;9930;49.240;8.548;2024-02-23T14:05:06;14.50;59.50
19567;DHT22;9930;49.240;8.548;2024-02-23T14:07:33;14.50;59.50
19567;DHT22;9930;49.240;8.548;2024-02-23T14:09:59;14.50;59.60
19567;DHT22;9930;49.240;8.548;2024-02-23T14:12:27;14.50;59.40
19567;DHT22;9930;49.240;8.548;2024-02-23T14:14:53;14.40;59.30
19567;DHT22;9930;49.240;8.548;2024-02-23T14:17:21;14.40;59.10
19567;DHT22;9930;49.240;8.548;2024-02-23T14:19:47;14.40;58.90
19567;DHT22;9930;49.240;8.548;2024-02-23T14:22:13;14.30;58.90
19567;DHT22;9930;49.240;8.548;2024-02-23T14:24:39;14.30;59.10
19567;DHT22;9930;49.240;8.548;2024-02-23T14:27:05;14.30;59.10
19567;DHT22;9930;49.240;8.548;2024-02-23T14:29:31;14.30;59.10
19567;DHT22;9930;49.240;8.548;2024-02-23T14:31:57;14.20;59.10
19567;DHT22;9930;49.240;8.548;2024-02-23T14:34:27;14.30;59.20
19567;DHT22;9930;49.240;8.548;2024-02-23T14:36:52;14.30;59.20
19567;DHT22;9930;49.240;8.548;2024-02-23T14:39:20;14.30;59.10
19567;DHT22;9930;49.240;8.548;2024-02-23T14:41:47;14.30;59.10
19567;DHT22;9930;49.240;8.548;2024-02-23T14:44:14;14.20;58.90
19567;DHT22;9930;49.240;8.548;2024-02-23T14:46:39;14.20;58.70
19567;DHT22;9930;49.240;8.548;2024-02-23T14:49:06;14.20;58.80
19567;DHT22;9930;49.240;8.548;2024-02-23T14:51:32;14.10;58.70
19567;DHT22;9930;49.240;8.548;2024-02-23T14:54:00;14.10;58.70
19567;DHT22;9930;49.240;8.548;2024-02-23T14:56:27;14.00;58.80
19567;DHT22;9930;49.240;8.548;2024-02-23T14:58:53;14.00;58.90
19567;DHT22;9930;49.240;8.548;2024-02-23T15:01:21;14.00;59.10
19567;DHT22;9930;49.240;8.548;2024-02-23T15:03:47;14.00;58.90
19567;DHT22;9930;49.240;8.548;2024-02-23T15:06:13;14.10;59.10
19567;DHT22;9930;49.240;8.548;2024-02-23T15:08:38;14.10;59.00
19567;DHT22;9930;49.240;8.548;2024-02-23T15:11:04;14.10;58.70
19567;DHT22;9930;49.240;8.548;2024-02-23T15:13:31;14.10;58.70
19567;DHT22;9930;49.240;8.548;2024-02-23T15:15:57;14.10;58.60
19567;DHT22;9930;49.240;8.548;2024-02-23T15:18:22;14.10;58.50
19567;DHT22;9930;49.240;8.548;2024-02-23T15:20:51;14.10;58.50
19567;DHT22;9930;49.240;8.548;2024-02-23T15:23:18;14.10;58.50
19567;DHT22;9930;49.240;8.548;2024-02-23T15:25:45;14.10;58.50
19567;DHT22;9930;49.240;8.548;2024-02-23T15:28:11;14.00;58.40
19567;DHT22;9930;49.240;8.548;2024-02-23T15:30:36;14.00;58.40
19567;DHT22;9930;49.240;8.548;2024-02-23T15:33:02;14.00;58.50
19567;DHT22;9930;49.240;8.548;2024-02-23T15:35:28;14.00;58.40
19567;DHT22;9930;49.240;8.548;2024-02-23T15:37:55;14.00;58.50
19567;DHT22;9930;49.240;8.548;2024-02-23T15:40:21;14.00;58.40
19567;DHT22;9930;49.240;8.548;2024-02-23T15:42:47;13.90;58.30
19567;DHT22;9930;49.240;8.548;2024-02-23T15:45:16;13.90;58.40
19567;DHT22;9930;49.240;8.548;2024-02-23T15:47:42;13.90;58.50
19567;DHT22;9930;49.240;8.548;2024-02-23T15:50:08;13.90;58.60